createdAt,value
2023-12-11T00:00:19.333Z,7.20
2023-12-11T00:02:48.361Z,7.18
2023-12-11T00:05:15.267Z,7.16
2023-12-11T00:07:42.037Z,7.16
2023-12-11T00:10:09.104Z,7.15
2023-12-11T00:12:36.123Z,7.07
2023-12-11T00:15:02.889Z,7.18
2023-12-11T00:17:30.240Z,7.17
2023-12-11T00:19:57.732Z,7.21
2023-12-11T00:22:24.396Z,7.14
2023-12-11T00:24:51.292Z,7.18
2023-12-11T00:27:17.994Z,7.22
2023-12-11T00:29:44.564Z,7.14
2023-12-11T00:32:11.249Z,7.21
2023-12-11T00:34:38.074Z,7.20
2023-12-11T00:37:04.665Z,7.23
2023-12-11T00:39:31.291Z,7.23
2023-12-11T00:41:58.093Z,7.22
2023-12-11T00:44:24.685Z,7.23
2023-12-11T00:46:51.321Z,7.24
2023-12-11T00:49:17.971Z,7.23
2023-12-11T00:51:45.077Z,7.23
2023-12-11T00:54:11.804Z,7.23
2023-12-11T00:56:38.493Z,7.22
2023-12-11T00:59:05.045Z,7.21
2023-12-11T01:01:31.691Z,7.27
2023-12-11T01:03:58.547Z,7.24
2023-12-11T01:06:25.052Z,7.26
2023-12-11T01:08:51.596Z,7.13
2023-12-11T01:11:18.180Z,7.23
2023-12-11T01:13:44.820Z,7.13
2023-12-11T01:16:11.535Z,7.26
2023-12-11T01:18:38.189Z,7.26
2023-12-11T01:21:05.149Z,7.22
2023-12-11T01:23:31.851Z,7.24
2023-12-11T01:25:58.397Z,7.27
2023-12-11T01:28:25.361Z,7.22
2023-12-11T01:30:51.998Z,7.24
2023-12-11T01:33:18.800Z,7.27
2023-12-11T01:35:45.536Z,7.22
2023-12-11T01:38:12.150Z,7.23
2023-12-11T01:40:38.730Z,7.23
2023-12-11T01:43:20.037Z,7.26
2023-12-11T01:46:06.252Z,7.27
2023-12-11T01:48:33.519Z,7.26
2023-12-11T01:51:00.797Z,7.20
2023-12-11T01:53:28.799Z,7.27
2023-12-11T01:55:55.809Z,7.26
2023-12-11T01:58:23.819Z,7.25
2023-12-11T02:00:50.914Z,7.12
2023-12-11T02:03:18.046Z,7.23
2023-12-11T02:05:45.153Z,7.12
2023-12-11T02:08:12.131Z,7.12
2023-12-11T02:10:38.793Z,7.26
2023-12-11T02:13:05.573Z,7.24
2023-12-11T02:15:38.635Z,7.27
2023-12-11T02:18:05.410Z,7.26
2023-12-11T02:20:31.951Z,7.27
2023-12-11T02:23:01.510Z,7.13
2023-12-11T02:25:32.026Z,7.26
2023-12-11T02:27:59.290Z,7.29
2023-12-11T02:30:25.925Z,7.27
2023-12-11T02:32:53.370Z,7.23
2023-12-11T02:35:20.029Z,7.23
2023-12-11T02:37:46.637Z,7.23
2023-12-11T02:40:13.307Z,7.27
2023-12-11T02:42:46.873Z,7.21
2023-12-11T02:45:13.502Z,7.26
2023-12-11T02:47:40.165Z,7.28
2023-12-11T02:50:07.309Z,7.28
2023-12-11T02:52:33.964Z,7.16
2023-12-11T02:55:00.653Z,7.29
2023-12-11T02:57:27.411Z,7.28
2023-12-11T02:59:54.118Z,7.27
2023-12-11T03:02:20.644Z,7.21
2023-12-11T03:04:47.271Z,7.27
2023-12-11T03:07:15.370Z,7.23
2023-12-11T03:09:42.082Z,7.26
2023-12-11T03:12:08.664Z,7.27
2023-12-11T03:14:35.265Z,7.28
2023-12-11T03:17:01.803Z,7.29
2023-12-11T03:19:28.651Z,7.28
2023-12-11T03:21:57.008Z,7.27
2023-12-11T03:24:23.809Z,7.26
2023-12-11T03:26:50.408Z,7.29
2023-12-11T03:29:17.267Z,7.24
2023-12-11T03:31:43.700Z,7.27
2023-12-11T03:34:10.399Z,7.30
2023-12-11T03:36:36.913Z,7.30
2023-12-11T03:39:04.328Z,7.25
2023-12-11T03:41:30.927Z,7.23
2023-12-11T03:43:57.481Z,7.27
2023-12-11T03:46:24.078Z,7.25
2023-12-11T03:48:50.733Z,7.25
2023-12-11T03:51:17.424Z,7.24
2023-12-11T03:53:44.020Z,7.28
2023-12-11T03:56:10.840Z,7.14
2023-12-11T03:58:37.283Z,7.28
2023-12-11T04:01:04.277Z,7.25
2023-12-11T04:03:32.588Z,7.27
2023-12-11T04:05:59.406Z,7.28
2023-12-11T04:08:25.864Z,7.31
2023-12-11T04:10:52.574Z,7.28
2023-12-11T04:13:19.149Z,7.28
2023-12-11T04:15:45.794Z,7.27
2023-12-11T04:18:12.452Z,7.15
2023-12-11T04:20:39.044Z,7.25
2023-12-11T04:23:05.712Z,7.30
2023-12-11T04:25:32.218Z,7.31
2023-12-11T04:27:58.837Z,7.31
2023-12-11T04:30:25.457Z,7.29
2023-12-11T04:32:52.134Z,7.28
2023-12-11T04:35:18.665Z,7.32
2023-12-11T04:37:45.246Z,7.29
2023-12-11T04:40:12.322Z,7.32
2023-12-11T04:42:38.992Z,7.32
2023-12-11T04:45:06.029Z,7.30
2023-12-11T04:47:33.208Z,7.31
2023-12-11T04:50:00.025Z,7.29
2023-12-11T04:52:26.685Z,7.33
2023-12-11T04:54:53.362Z,7.32
2023-12-11T04:57:19.972Z,7.28
2023-12-11T04:59:46.607Z,7.34
2023-12-11T05:02:13.238Z,7.32
2023-12-11T05:04:39.852Z,7.32
2023-12-11T05:07:07.445Z,7.31
2023-12-11T05:09:34.127Z,7.34
2023-12-11T05:12:00.714Z,7.32
2023-12-11T05:14:27.309Z,7.33
2023-12-11T05:16:53.916Z,7.31
2023-12-11T05:19:20.724Z,7.32
2023-12-11T05:21:47.273Z,7.33
2023-12-11T05:24:15.928Z,7.33
2023-12-11T05:26:42.877Z,7.32
2023-12-11T05:29:09.538Z,7.29
2023-12-11T05:31:36.145Z,7.32
2023-12-11T05:34:02.911Z,7.34
2023-12-11T05:36:29.413Z,7.34
2023-12-11T05:38:56.061Z,7.35
2023-12-11T05:41:22.679Z,7.22
2023-12-11T05:43:49.254Z,7.37
2023-12-11T05:46:15.921Z,7.34
2023-12-11T05:48:42.659Z,7.34
2023-12-11T05:51:09.220Z,7.35
2023-12-11T05:53:35.942Z,7.22
2023-12-11T05:56:02.559Z,7.31
2023-12-11T05:58:29.211Z,7.34
2023-12-11T06:00:55.961Z,7.35
2023-12-11T06:03:22.516Z,7.36
2023-12-11T06:05:49.179Z,7.35
2023-12-11T06:08:15.827Z,7.35
2023-12-11T06:10:42.573Z,7.32
2023-12-11T06:13:09.683Z,7.32
2023-12-11T06:15:36.315Z,7.33
2023-12-11T06:18:03.243Z,7.35
2023-12-11T06:20:29.994Z,7.32
2023-12-11T06:22:56.674Z,7.38
2023-12-11T06:25:23.321Z,7.35
2023-12-11T06:27:52.857Z,7.34
2023-12-11T06:30:19.794Z,7.41
2023-12-11T06:32:46.725Z,7.39
2023-12-11T06:35:13.406Z,7.36
2023-12-11T06:37:40.112Z,7.28
2023-12-11T06:40:07.378Z,7.29
2023-12-11T06:42:38.877Z,7.37
2023-12-11T06:45:10.098Z,7.29
2023-12-11T06:47:37.718Z,7.39
2023-12-11T06:50:05.220Z,7.28
2023-12-11T06:52:32.070Z,7.36
2023-12-11T06:54:58.824Z,7.40
2023-12-11T06:57:25.385Z,7.40
2023-12-11T06:59:51.971Z,7.41
2023-12-11T07:02:18.715Z,7.39
2023-12-11T07:04:46.038Z,7.39
2023-12-11T07:07:12.787Z,7.37
2023-12-11T07:09:40.077Z,7.39
2023-12-11T07:12:07.067Z,7.39
2023-12-11T07:14:33.656Z,7.38
2023-12-11T07:17:00.227Z,7.31
2023-12-11T07:19:26.867Z,7.40
2023-12-11T07:21:53.523Z,7.42
2023-12-11T07:24:20.167Z,7.41
2023-12-11T07:26:46.751Z,7.39
2023-12-11T07:29:13.341Z,7.39
2023-12-11T07:31:45.539Z,7.41
2023-12-11T07:34:12.219Z,7.42
2023-12-11T07:36:38.907Z,7.44
2023-12-11T07:39:07.162Z,7.46
2023-12-11T07:41:33.872Z,7.43
2023-12-11T07:44:00.718Z,7.43
2023-12-11T07:46:27.251Z,7.44
2023-12-11T07:48:55.120Z,7.31
2023-12-11T07:51:25.287Z,7.43
2023-12-11T07:53:54.030Z,7.45
2023-12-11T07:56:22.020Z,7.43
2023-12-11T07:58:49.004Z,7.45
2023-12-11T08:01:15.659Z,7.44
2023-12-11T08:03:42.513Z,7.42
2023-12-11T08:06:12.251Z,7.43
2023-12-11T08:08:44.696Z,7.40
2023-12-11T08:11:22.849Z,7.49
2023-12-11T08:13:49.931Z,7.47
2023-12-11T08:16:17.149Z,7.46
2023-12-11T08:18:45.838Z,7.43
2023-12-11T08:21:13.186Z,7.42
2023-12-11T08:23:40.912Z,7.49
2023-12-11T08:26:08.403Z,7.47
2023-12-11T08:28:35.120Z,7.44
2023-12-11T08:31:01.809Z,7.47
2023-12-11T08:33:28.455Z,7.49
2023-12-11T08:35:55.059Z,7.45
2023-12-11T08:38:23.515Z,7.44
2023-12-11T08:40:50.735Z,7.41
2023-12-11T08:43:17.891Z,7.49
2023-12-11T08:45:44.778Z,7.49
2023-12-11T08:48:11.562Z,7.52
2023-12-11T08:50:38.105Z,7.49
2023-12-11T08:53:06.719Z,7.50
2023-12-11T08:55:34.025Z,7.49
2023-12-11T08:58:00.830Z,7.49
2023-12-11T09:00:29.538Z,7.49
2023-12-11T09:02:56.214Z,7.53
2023-12-11T09:05:22.932Z,7.53
2023-12-11T09:07:49.652Z,7.53
2023-12-11T09:10:16.409Z,7.55
2023-12-11T09:12:43.113Z,7.57
2023-12-11T09:15:10.596Z,7.56
2023-12-11T09:17:37.554Z,7.56
2023-12-11T09:20:06.163Z,7.54
2023-12-11T09:22:33.137Z,7.56
2023-12-11T09:24:59.817Z,7.53
2023-12-11T09:27:26.537Z,7.46
2023-12-11T09:29:53.139Z,7.55
2023-12-11T09:32:19.831Z,7.60
2023-12-11T09:34:47.454Z,7.58
2023-12-11T09:37:15.452Z,7.60
2023-12-11T09:39:42.382Z,7.59
2023-12-11T09:42:09.498Z,7.61
2023-12-11T09:44:37.209Z,7.61
2023-12-11T09:47:11.866Z,7.58
2023-12-11T09:49:39.895Z,7.61
2023-12-11T09:52:06.927Z,7.59
2023-12-11T09:54:33.566Z,7.59
2023-12-11T09:57:01.229Z,7.51
2023-12-11T09:59:29.158Z,7.61
2023-12-11T10:01:56.645Z,7.62
2023-12-11T10:04:23.522Z,7.61
2023-12-11T10:06:53.633Z,7.60
2023-12-11T10:09:36.370Z,7.63
2023-12-11T10:12:07.285Z,7.65
2023-12-11T10:14:34.577Z,7.62
2023-12-11T10:17:17.426Z,7.66
2023-12-11T10:19:44.188Z,7.61
2023-12-11T10:22:26.088Z,7.65
2023-12-11T10:24:52.750Z,7.64
2023-12-11T10:27:28.650Z,7.63
2023-12-11T10:30:14.259Z,7.62
2023-12-11T10:32:41.267Z,7.65
2023-12-11T10:35:23.272Z,7.64
2023-12-11T10:37:49.903Z,7.61
2023-12-11T10:40:16.585Z,7.71
2023-12-11T10:42:43.204Z,7.68
2023-12-11T10:45:10.527Z,7.70
2023-12-11T10:47:38.342Z,7.73
2023-12-11T10:50:07.424Z,7.72
2023-12-11T10:52:34.965Z,7.74
2023-12-11T10:55:01.563Z,7.76
2023-12-11T10:57:29.735Z,7.71
2023-12-11T10:59:56.752Z,7.72
2023-12-11T11:02:25.386Z,7.78
2023-12-11T11:04:52.651Z,7.76
2023-12-11T11:07:33.677Z,7.78
2023-12-11T11:10:34.386Z,7.79
2023-12-11T11:13:09.375Z,7.80
2023-12-11T11:15:36.157Z,7.80
2023-12-11T11:18:06.638Z,7.82
2023-12-11T11:20:39.111Z,7.82
2023-12-11T11:23:14.521Z,7.82
2023-12-11T11:25:41.766Z,7.84
2023-12-11T11:28:51.943Z,7.84
2023-12-11T11:31:24.085Z,7.71
2023-12-11T11:33:58.388Z,7.80
2023-12-11T11:36:47.892Z,7.86
2023-12-11T11:39:14.865Z,7.81
2023-12-11T11:41:42.544Z,7.88
2023-12-11T11:44:10.909Z,7.84
2023-12-11T11:46:52.083Z,7.88
2023-12-11T11:49:28.631Z,7.89
2023-12-11T11:51:55.954Z,7.89
2023-12-11T11:54:24.810Z,7.91
2023-12-11T11:56:52.349Z,7.94
2023-12-11T11:59:20.368Z,7.93
2023-12-11T12:01:57.672Z,7.93
2023-12-11T12:04:35.580Z,7.96
2023-12-11T12:07:04.216Z,7.96
2023-12-11T12:09:32.303Z,7.99
2023-12-11T12:11:59.970Z,7.96
2023-12-11T12:14:27.111Z,7.96
2023-12-11T12:16:54.440Z,7.97
2023-12-11T12:19:34.062Z,7.97
2023-12-11T12:22:03.270Z,8.02
2023-12-11T12:24:30.817Z,8.02
2023-12-11T12:27:07.356Z,8.05
2023-12-11T12:29:35.043Z,8.06
2023-12-11T12:32:02.598Z,8.04
2023-12-11T12:34:31.902Z,8.07
2023-12-11T12:37:01.098Z,8.09
2023-12-11T12:39:28.188Z,8.03
2023-12-11T12:41:55.610Z,8.12
2023-12-11T12:44:22.650Z,8.10
2023-12-11T12:46:49.289Z,8.11
2023-12-11T12:49:17.484Z,8.15
2023-12-11T12:51:55.380Z,8.09
2023-12-11T12:54:25.114Z,8.16
2023-12-11T12:56:56.850Z,8.15
2023-12-11T12:59:24.169Z,8.06
2023-12-11T13:01:51.176Z,8.17
2023-12-11T13:04:18.003Z,8.23
2023-12-11T13:06:46.307Z,8.23
2023-12-11T13:09:30.057Z,8.26
2023-12-11T13:11:56.701Z,8.22
2023-12-11T13:14:24.910Z,8.26
2023-12-11T13:16:51.490Z,8.27
2023-12-11T13:19:18.164Z,8.28
2023-12-11T13:21:44.822Z,8.19
2023-12-11T13:24:11.475Z,8.27
2023-12-11T13:26:38.115Z,8.29
2023-12-11T13:29:04.819Z,8.36
2023-12-11T13:31:31.317Z,8.61
2023-12-11T13:33:58.004Z,8.71
2023-12-11T13:36:24.435Z,9.06
2023-12-11T13:38:51.376Z,9.22
2023-12-11T13:41:17.984Z,9.32
2023-12-11T13:43:44.595Z,9.45
2023-12-11T13:46:11.185Z,9.59
2023-12-11T13:48:38.170Z,9.68
2023-12-11T13:51:06.820Z,9.70
2023-12-11T13:53:33.633Z,9.80
2023-12-11T13:56:01.326Z,9.85
2023-12-11T13:58:28.582Z,9.87
2023-12-11T14:00:55.348Z,9.97
2023-12-11T14:03:22.240Z,9.89
2023-12-11T14:05:52.930Z,9.98
2023-12-11T14:08:19.697Z,10.07
2023-12-11T14:10:46.413Z,10.09
2023-12-11T14:13:14.509Z,10.13
2023-12-11T14:15:42.705Z,10.15
2023-12-11T14:18:11.444Z,10.18
2023-12-11T14:20:38.634Z,10.20
2023-12-11T14:23:05.339Z,10.20
2023-12-11T14:25:31.865Z,10.25
2023-12-11T14:28:04.988Z,10.28
2023-12-11T14:30:36.593Z,10.31
2023-12-11T14:33:05.470Z,10.35
2023-12-11T14:35:32.252Z,10.40
2023-12-11T14:37:59.075Z,10.45
2023-12-11T14:40:25.704Z,10.51
2023-12-11T14:42:52.307Z,10.50
2023-12-11T14:45:19.022Z,10.56
2023-12-11T14:47:45.816Z,10.60
2023-12-11T14:50:12.694Z,10.58
2023-12-11T14:52:39.398Z,10.58
2023-12-11T14:55:07.003Z,10.64
2023-12-11T14:57:34.585Z,10.67
2023-12-11T15:00:02.246Z,10.68
2023-12-11T15:02:28.738Z,10.67
2023-12-11T15:04:55.315Z,10.65
2023-12-11T15:07:21.894Z,10.63
2023-12-11T15:09:49.236Z,10.66
2023-12-11T15:12:15.916Z,10.73
2023-12-11T15:14:44.261Z,10.78
2023-12-11T15:17:11.938Z,10.80
2023-12-11T15:19:42.025Z,10.76
2023-12-11T15:22:08.837Z,10.68
2023-12-11T15:24:35.425Z,10.79
2023-12-11T15:27:02.180Z,10.83
2023-12-11T15:29:28.939Z,10.81
2023-12-11T15:31:55.617Z,10.86
2023-12-11T15:34:22.380Z,10.93
2023-12-11T15:36:49.077Z,10.94
2023-12-11T15:39:16.403Z,10.97
2023-12-11T15:41:43.022Z,11.05
2023-12-11T15:44:09.486Z,11.09
2023-12-11T15:46:36.285Z,11.11
2023-12-11T15:49:03.108Z,11.21
2023-12-11T15:51:30.873Z,11.23
2023-12-11T15:53:57.594Z,11.23
2023-12-11T15:56:24.188Z,11.32
2023-12-11T15:58:50.934Z,11.38
2023-12-11T16:01:17.689Z,11.32
2023-12-11T16:03:44.960Z,11.38
2023-12-11T16:06:11.750Z,11.31
2023-12-11T16:08:38.270Z,11.37
2023-12-11T16:11:07.218Z,11.34
2023-12-11T16:13:34.034Z,11.26
2023-12-11T16:16:00.641Z,11.30
2023-12-11T16:18:27.385Z,11.30
2023-12-11T16:20:54.527Z,11.21
2023-12-11T16:23:55.164Z,11.23
2023-12-11T16:27:31.068Z,11.17
2023-12-11T16:29:58.968Z,11.06
2023-12-11T16:32:25.572Z,11.05
2023-12-11T16:34:52.159Z,11.08
2023-12-11T16:41:28.955Z,11.05
2023-12-11T16:43:56.085Z,11.01
2023-12-11T16:46:23.095Z,11.05
2023-12-11T16:49:12.444Z,10.91
2023-12-11T16:51:39.592Z,10.92
2023-12-11T16:54:06.894Z,10.97
2023-12-11T16:56:34.136Z,10.85
2023-12-11T16:59:00.677Z,10.92
2023-12-11T17:01:27.317Z,10.94
2023-12-11T17:03:53.921Z,10.95
2023-12-11T17:06:23.999Z,10.93
2023-12-11T17:08:50.562Z,10.90
2023-12-11T17:11:17.144Z,10.77
2023-12-11T17:13:43.854Z,10.88
2023-12-11T17:16:10.617Z,10.88
2023-12-11T17:18:37.410Z,10.85
2023-12-11T17:21:06.809Z,10.83
2023-12-11T17:23:33.859Z,10.72
2023-12-11T17:26:01.149Z,10.78
2023-12-11T17:28:27.838Z,10.77
2023-12-11T17:30:54.711Z,10.78
2023-12-11T17:33:21.290Z,10.73
2023-12-11T17:35:47.801Z,10.78
2023-12-11T17:38:15.011Z,10.77
2023-12-11T17:40:41.607Z,10.62
2023-12-11T17:43:08.936Z,10.73
2023-12-11T17:45:36.356Z,10.71
2023-12-11T17:48:06.479Z,10.69
2023-12-11T17:50:33.041Z,10.68
2023-12-11T17:52:59.661Z,10.65
2023-12-11T17:55:26.143Z,10.66
2023-12-11T17:57:52.775Z,10.63
2023-12-11T18:00:19.807Z,10.62
2023-12-11T18:02:46.323Z,10.65
2023-12-11T18:05:13.201Z,10.59
2023-12-11T18:07:40.509Z,10.56
2023-12-11T18:10:07.284Z,10.57
2023-12-11T18:12:33.883Z,10.52
2023-12-11T18:15:01.094Z,10.57
2023-12-11T18:17:27.820Z,10.50
2023-12-11T18:19:54.604Z,10.52
2023-12-11T18:22:21.263Z,10.51
2023-12-11T18:24:47.941Z,10.51
2023-12-11T18:27:14.352Z,10.53
2023-12-11T18:29:40.956Z,10.53
2023-12-11T18:32:07.390Z,10.56
2023-12-11T18:34:43.028Z,10.48
2023-12-11T18:37:18.239Z,10.45
2023-12-11T18:39:44.807Z,10.50
2023-12-11T18:43:23.722Z,10.48
2023-12-11T18:45:50.591Z,10.51
2023-12-11T18:48:42.772Z,10.51
2023-12-11T18:51:09.401Z,10.46
2023-12-11T18:54:27.013Z,10.53
2023-12-11T18:57:13.345Z,10.43
2023-12-11T18:59:39.939Z,10.42
2023-12-11T19:02:09.154Z,10.41
2023-12-11T19:04:36.349Z,10.38
2023-12-11T19:07:03.051Z,10.42
2023-12-11T19:09:29.534Z,10.45
2023-12-11T19:11:58.396Z,10.42
2023-12-11T19:14:27.549Z,10.37
2023-12-11T19:16:54.690Z,10.36
2023-12-11T19:19:21.496Z,10.34
2023-12-11T19:21:50.406Z,10.33
2023-12-11T19:24:17.166Z,10.34
2023-12-11T19:26:43.763Z,10.33
2023-12-11T19:29:10.382Z,10.35
2023-12-11T19:31:36.986Z,10.35
2023-12-11T19:34:06.031Z,10.28
2023-12-11T19:36:32.729Z,10.29
2023-12-11T19:38:59.161Z,10.35
2023-12-11T19:41:25.712Z,10.41
2023-12-11T19:43:52.408Z,10.29
2023-12-11T19:46:18.968Z,10.35
2023-12-11T19:48:45.726Z,10.32
2023-12-11T19:51:13.754Z,10.29
2023-12-11T19:53:40.960Z,10.38
2023-12-11T19:56:07.980Z,10.40
2023-12-11T20:02:36.512Z,10.62
2023-12-11T20:05:03.347Z,10.58
2023-12-11T20:07:30.221Z,10.60
2023-12-11T20:09:57.390Z,10.61
2023-12-11T20:12:24.284Z,10.62
2023-12-11T20:14:50.943Z,10.63
2023-12-11T20:17:20.059Z,10.61
2023-12-11T20:19:47.277Z,10.54
2023-12-11T20:22:13.966Z,10.65
2023-12-11T20:24:40.599Z,10.62
2023-12-11T20:27:07.090Z,10.68
2023-12-11T20:29:33.709Z,10.64
2023-12-11T20:32:00.252Z,10.67
2023-12-11T20:34:27.046Z,10.66
2023-12-11T20:36:53.777Z,10.66
2023-12-11T20:39:20.439Z,10.67
2023-12-11T20:41:47.126Z,10.55
2023-12-11T20:44:13.570Z,10.72
2023-12-11T20:46:42.842Z,10.68
2023-12-11T20:49:09.513Z,10.66
2023-12-11T20:51:37.395Z,10.67
2023-12-11T20:54:04.820Z,10.70
2023-12-11T20:56:33.349Z,10.65
2023-12-11T20:59:00.611Z,10.69
2023-12-11T21:01:28.604Z,10.59
2023-12-11T21:03:56.987Z,10.66
2023-12-11T21:06:24.137Z,10.67
2023-12-11T21:08:56.140Z,10.65
2023-12-11T21:11:31.863Z,10.71
2023-12-11T21:13:59.758Z,10.75
2023-12-11T21:16:26.499Z,10.72
2023-12-11T21:18:53.214Z,10.62
2023-12-11T21:21:22.330Z,10.66
2023-12-11T21:23:51.971Z,10.69
2023-12-11T21:26:19.624Z,10.72
2023-12-11T21:28:47.597Z,10.71
2023-12-11T21:31:18.175Z,10.70
2023-12-11T21:33:45.315Z,10.74
2023-12-11T21:36:12.347Z,10.69
2023-12-11T21:38:39.562Z,10.62
2023-12-11T21:41:08.374Z,10.62
2023-12-11T21:43:34.906Z,10.65
2023-12-11T21:46:01.787Z,10.61
2023-12-11T21:48:28.529Z,10.63
2023-12-11T21:50:55.091Z,10.65
2023-12-11T21:53:21.648Z,10.83
2023-12-11T21:55:49.497Z,10.87
2023-12-11T21:58:16.426Z,11.32
2023-12-11T22:00:43.016Z,11.27
2023-12-11T22:03:09.674Z,11.15
2023-12-11T22:05:36.554Z,11.13
2023-12-11T22:08:03.199Z,11.07
2023-12-11T22:10:29.658Z,11.04
2023-12-11T22:12:56.220Z,10.96
2023-12-11T22:15:23.527Z,10.88
2023-12-11T22:17:51.036Z,10.84
2023-12-11T22:20:17.716Z,10.92
2023-12-11T22:22:46.171Z,10.90
2023-12-11T22:25:12.766Z,10.79
2023-12-11T22:27:39.342Z,10.88
2023-12-11T22:30:07.508Z,10.70
2023-12-11T22:32:34.114Z,10.84
2023-12-11T22:35:00.680Z,10.84
2023-12-11T22:37:27.458Z,10.74
2023-12-11T22:39:54.089Z,10.83
2023-12-11T22:42:20.627Z,10.84
2023-12-11T22:44:47.417Z,10.83
2023-12-11T22:47:14.165Z,10.83
2023-12-11T22:49:40.719Z,10.84
2023-12-11T22:52:07.382Z,10.81
2023-12-11T22:54:33.793Z,10.83
2023-12-11T22:57:00.284Z,10.77
2023-12-11T22:59:27.102Z,10.81
2023-12-11T23:01:53.639Z,10.81
2023-12-11T23:04:20.401Z,10.80
2023-12-11T23:06:47.090Z,10.80
2023-12-11T23:09:13.713Z,10.77
2023-12-11T23:11:40.247Z,10.80
2023-12-11T23:14:06.868Z,10.79
2023-12-11T23:16:33.382Z,10.81
2023-12-11T23:19:00.417Z,10.81
2023-12-11T23:21:29.384Z,10.66
2023-12-11T23:23:59.982Z,10.79
2023-12-11T23:26:26.551Z,10.79
2023-12-11T23:28:55.226Z,10.68
2023-12-11T23:31:22.170Z,10.78
2023-12-11T23:33:49.154Z,10.76
2023-12-11T23:36:17.534Z,10.78
2023-12-11T23:38:44.145Z,10.77
2023-12-11T23:41:10.637Z,10.79
2023-12-11T23:43:37.263Z,10.78
2023-12-11T23:46:03.814Z,10.78
2023-12-11T23:48:30.463Z,10.72
2023-12-11T23:50:56.914Z,10.75
2023-12-11T23:53:23.509Z,10.61
2023-12-11T23:55:50.034Z,10.64
2023-12-11T23:58:16.715Z,10.63
